Latest Weather Observations for Devonport Airport

IDT60801

Issued at 2:31 pm EST Thursday 30 June 2016 (issued every 30 minutes, with the page automatically refreshed every 10 minutes)

About weather observations | Map of weather stations | Latest weather observations for TAS | Other Formats
Station Details ID: 091126 Name: DEVONPORT AIRPORT Lat: -41.17 Lon: 146.43 Height: 8.0 m
Data from the previous 72 hours. | See also: Recent months at Devonport Airport
Date/Time
EST
Temp
°C
App
Temp
°C
Dew
Point
°C
Rel
Hum
%
Delta-T
°C
Wind Press
QNH
hPa
Press
MSL
hPa
Rain since
9am
mm
Dir  Spd
km/h
Gust
km/h
Spd
kts
Gust
kts
30/02:30pm 11.3 2.0 9.2 87 1.1 NNW 48 61 26 33 1002.6 1002.6 6.2
30/02:07pm 11.2 2.5 9.8 91 0.7 NNW 46 59 25 32 1002.9 1002.9 6.0
30/02:00pm 11.1 2.8 9.9 92 0.6 NNW 44 59 24 32 1002.8 1002.8 6.0
30/01:40pm 11.0 2.3 9.9 93 0.6 N 46 65 25 35 1002.9 1002.9 5.4
30/01:30pm 11.0 2.3 9.8 92 0.6 N 46 61 25 33 1003.2 1003.2 5.2
30/01:17pm 11.0 2.3 9.8 92 0.6 N 46 65 25 35 1003.6 1003.6 4.6
30/01:12pm 10.9 1.6 9.3 90 0.8 N 48 65 26 35 1003.5 1003.5 4.4
30/01:05pm 11.1 2.4 9.9 92 0.6 N 46 59 25 32 1003.8 1003.8 4.4
30/01:00pm 11.0 1.4 9.6 91 0.7 N 50 59 27 32 1003.9 1003.9 4.2
30/12:43pm 10.8 1.6 9.4 91 0.7 N 48 59 26 32 1004.2 1004.2 3.8
30/12:30pm 10.6 1.3 9.2 91 0.7 N 48 59 26 32 1004.6 1004.6 3.6
30/12:15pm 10.6 1.6 9.0 90 0.8 NNW 46 57 25 31 1005.1 1005.1 2.4
30/12:00pm 10.9 1.6 9.3 90 0.8 NNW 48 65 26 35 1005.2 1005.2 1.8
30/11:30am 11.3 0.4 9.0 86 1.1 N 56 69 30 37 1005.3 1005.3 1.2
30/11:00am 11.4 1.0 9.1 86 1.2 N 54 67 29 36 1006.0 1006.1 0.8
30/10:45am 11.3 1.9 8.7 84 1.3 N 48 67 26 36 1006.2 1006.3 0.6
30/10:30am 11.2 1.5 9.1 87 1.0 NNW 50 63 27 34 1006.6 1006.7 0.4
30/10:00am 11.7 2.3 8.6 81 1.5 NNW 48 63 26 34 1006.7 1006.8 0.2
30/09:30am 11.9 1.2 8.0 77 1.9 N 54 67 29 36 1007.0 1007.1 0.0
30/09:00am 12.2 1.7 7.5 73 2.3 NNW 52 63 28 34 1007.4 1007.5 2.8
30/08:30am 12.4 2.1 8.1 75 2.1 NNW 52 67 28 36 1007.8 1007.9 2.8
30/08:03am 11.5 1.5 8.0 79 1.7 NNW 50 69 27 37 1007.9 1008.0 2.8
30/08:00am 11.3 1.5 8.7 84 1.3 NNW 50 67 27 36 1008.3 1008.4 2.6
30/07:31am 12.3 1.9 7.6 73 2.3 NNW 52 70 28 38 1008.3 1008.4 2.6
30/07:30am 12.2 1.5 8.1 76 2.0 NNW 54 70 29 38 1008.4 1008.5 2.6
30/07:22am 12.4 1.9 7.5 72 2.4 NNW 52 70 28 38 1008.3 1008.4 2.6
30/07:00am 12.7 1.9 7.6 71 2.5 NNW 54 69 29 37 1008.5 1008.6 2.6
30/06:39am 12.6 2.2 7.9 73 2.3 N 52 70 28 38 1009.0 1009.1 2.6
30/06:30am 12.7 1.4 7.0 68 2.7 N 56 70 30 38 1009.0 1009.1 2.6
30/06:15am 12.6 2.4 6.9 68 2.7 N 50 69 27 37 1009.2 1009.3 2.6
30/06:00am 12.6 2.4 6.9 68 2.7 N 50 63 27 34 1009.4 1009.5 2.6
30/05:30am 12.7 2.2 7.2 69 2.7 N 52 69 28 37 1009.9 1010.0 2.6
30/05:00am 12.6 2.9 7.5 71 2.5 N 48 63 26 34 1010.5 1010.6 2.6
30/04:30am 12.7 2.1 7.0 68 2.7 N 52 65 28 35 1010.8 1010.9 2.6
30/04:00am 12.6 3.3 7.5 71 2.5 N 46 63 25 34 1011.3 1011.4 2.6
30/03:30am 12.6 3.2 7.3 70 2.6 N 46 54 25 29 1012.2 1012.3 2.6
30/03:00am 12.7 3.2 6.7 67 2.9 NNW 46 61 25 33 1012.7 1012.8 2.6
30/02:52am 12.6 4.0 6.6 67 2.9 N 41 61 22 33 1012.9 1013.0 2.6
30/02:30am 11.6 4.0 5.7 67 2.7 N 35 52 19 28 1013.6 1013.7 2.6
30/02:25am 11.6 2.9 5.9 68 2.7 N 41 59 22 32 1013.8 1013.9 2.6
30/02:00am 12.6 3.9 6.0 64 3.1 NNW 41 52 22 28 1014.1 1014.2 2.6
30/01:30am 12.6 4.9 7.3 70 2.6 NW 37 48 20 26 1014.6 1014.7 2.6
30/01:00am 12.5 3.5 6.3 66 2.9 NNW 43 54 23 29 1015.0 1015.1 2.6
30/12:30am 12.4 3.7 6.0 65 3.0 NNW 41 52 22 28 1015.7 1015.8 2.6
30/12:14am 12.5 2.9 6.3 66 2.9 NNW 46 65 25 35 1015.9 1016.0 2.6
30/12:00am 12.6 2.4 6.9 68 2.7 NNW 50 63 27 34 1016.0 1016.1 2.6
 
Date/Time
EST
Temp
°C
App
Temp
°C
Dew
Point
°C
Rel
Hum
%
Delta-T
°C
Wind Press
QNH
hPa
Press
MSL
hPa
Rain since
9am
mm
Dir  Spd
km/h
Gust
km/h
Spd
kts
Gust
kts
29/11:30pm 12.8 3.5 7.5 70 2.6 NNW 46 56 25 30 1016.4 1016.5 2.6
29/11:00pm 12.8 4.2 8.9 77 2.0 NNW 44 57 24 31 1016.7 1016.8 2.6
29/10:30pm 12.7 6.4 9.0 78 1.9 N 32 43 17 23 1017.1 1017.2 2.6
29/10:00pm 12.6 7.2 9.6 82 1.5 N 28 33 15 18 1017.7 1017.8 2.6
29/09:30pm 12.5 6.8 9.7 83 1.4 NNW 30 37 16 20 1018.2 1018.2 2.6
29/09:00pm 12.6 6.4 9.4 81 1.6 NNW 32 37 17 20 1018.4 1018.4 2.6
29/08:30pm 12.7 8.0 9.2 79 1.8 N 24 30 13 16 1018.5 1018.5 2.2
29/08:00pm 12.4 7.3 9.2 81 1.6 NNW 26 32 14 17 1019.0 1019.0 2.2
29/07:30pm 12.6 7.7 10.1 85 1.3 NNW 26 32 14 17 1019.2 1019.2 2.2
29/07:00pm 12.6 8.9 10.1 85 1.3 NNW 20 28 11 15 1019.4 1019.4 2.2
29/06:30pm 12.5 8.0 10.0 85 1.3 NW 24 30 13 16 1019.5 1019.5 2.2
29/06:28pm 12.4 7.9 10.1 86 1.2 NW 24 30 13 16 1019.5 1019.5 2.2
29/06:00pm 11.6 9.3 10.3 92 0.7 WNW 13 15 7 8 1019.6 1019.6 2.2
29/05:48pm 11.4 8.2 10.1 92 0.7 W 17 22 9 12 1019.7 1019.7 2.2
29/05:47pm 11.4 8.2 10.1 92 0.7 W 17 22 9 12 1019.7 1019.7 2.2
29/05:30pm 11.6 7.1 10.2 91 0.7 WNW 24 33 13 18 1019.8 1019.8 1.4
29/05:27pm 11.6 6.7 9.9 89 0.9 WNW 26 33 14 18 1019.8 1019.8 1.0
29/05:00pm 12.6 7.9 9.4 81 1.6 WNW 24 33 13 18 1019.9 1019.9 0.0
29/04:30pm 13.0 7.6 9.6 80 1.7 NW 28 35 15 19 1019.9 1019.9 0.0
29/04:00pm 13.0 7.1 10.5 85 1.3 NW 32 41 17 22 1020.1 1020.1 0.0
29/03:30pm 13.4 7.5 10.6 83 1.5 NW 32 39 17 21 1020.1 1020.1 0.0
29/03:00pm 14.0 8.4 10.0 77 2.1 NW 30 37 16 20 1020.3 1020.3 0.0
29/02:30pm 14.3 9.7 9.7 74 2.4 NW 24 33 13 18 1020.3 1020.3 0.0
29/02:00pm 14.3 9.5 8.9 70 2.7 NW 24 30 13 16 1020.4 1020.4 0.0
29/01:30pm 14.3 10.3 9.1 71 2.6 NW 20 26 11 14 1020.7 1020.7 0.0
29/01:00pm 14.5 10.9 9.7 73 2.5 NW 19 24 10 13 1021.2 1021.2 0.0
29/12:30pm 14.1 9.8 9.3 73 2.5 NW 22 30 12 16 1021.5 1021.5 0.0
29/12:00pm 13.9 9.6 9.5 75 2.2 NW 22 26 12 14 1021.8 1021.8 0.0
29/11:30am 13.8 9.6 9.8 77 2.1 NW 22 28 12 15 1022.2 1022.2 0.0
29/11:00am 13.9 10.4 10.1 78 2.0 NW 19 24 10 13 1022.6 1022.6 0.0
29/10:30am 13.1 9.2 9.5 79 1.8 WNW 20 26 11 14 1022.6 1022.6 0.0
29/10:00am 13.1 8.5 9.7 80 1.7 WNW 24 30 13 16 1022.6 1022.6 0.0
29/09:30am 12.8 7.8 9.6 81 1.6 WNW 26 33 14 18 1022.5 1022.5 0.0
29/09:00am 12.5 7.5 9.7 83 1.4 WNW 26 30 14 16 1022.5 1022.5 0.0
29/08:30am 12.1 7.5 9.5 84 1.3 WNW 24 28 13 15 1022.2 1022.2 0.0
29/08:00am 11.9 8.0 9.5 85 1.2 NW 20 30 11 16 1021.7 1021.7 0.0
29/07:30am 11.9 6.8 9.3 84 1.3 WNW 26 33 14 18 1021.4 1021.4 0.0
29/07:00am 11.9 6.1 9.3 84 1.3 WNW 30 35 16 19 1021.1 1021.1 0.0
29/06:30am 11.9 6.4 9.1 83 1.4 WNW 28 35 15 19 1020.8 1020.8 0.0
29/06:00am 11.7 7.0 9.3 85 1.2 WNW 24 30 13 16 1020.8 1020.8 0.0
29/05:30am 11.4 5.8 8.6 83 1.4 WNW 28 32 15 17 1020.5 1020.5 0.0
29/05:00am 11.5 6.3 8.7 83 1.4 WNW 26 32 14 17 1020.2 1020.2 0.0
29/04:30am 11.1 7.2 8.8 86 1.1 WNW 19 30 10 16 1020.0 1020.0 0.0
29/04:00am 10.5 6.4 7.9 84 1.3 W 19 26 10 14 1020.2 1020.2 0.0
29/03:30am 11.4 6.6 8.8 84 1.3 WNW 24 33 13 18 1020.1 1020.1 0.0
29/03:00am 11.6 6.0 8.8 83 1.4 WNW 28 35 15 19 1020.1 1020.1 0.0
29/02:30am 11.9 7.1 8.9 82 1.5 WNW 24 32 13 17 1020.0 1020.0 0.0
29/02:00am 11.6 7.8 9.7 88 1.0 WNW 20 26 11 14 1020.3 1020.3 0.0
29/01:30am 10.0 7.6 8.6 91 0.7 W 11 13 6 7 1020.2 1020.2 0.0
29/01:00am 11.3 8.5 9.9 91 0.7 W 15 20 8 11 1020.3 1020.3 0.0
29/12:30am 12.1 8.6 10.8 92 0.7 WNW 20 26 11 14 1020.3 1020.3 0.0
29/12:00am 12.3 8.4 10.9 91 0.7 WNW 22 28 12 15 1020.5 1020.5 0.0
 
Date/Time
EST
Temp
°C
App
Temp
°C
Dew
Point
°C
Rel
Hum
%
Delta-T
°C
Wind Press
QNH
hPa
Press
MSL
hPa
Rain since
9am
mm
Dir  Spd
km/h
Gust
km/h
Spd
kts
Gust
kts
28/11:30pm 12.2 7.9 10.8 91 0.7 WNW 24 28 13 15 1020.4 1020.4 0.0
28/11:00pm 12.5 7.8 10.7 89 0.9 WNW 26 33 14 18 1020.4 1020.4 0.0
28/10:30pm 12.3 8.8 10.9 91 0.7 WNW 20 30 11 16 1020.3 1020.3 0.0
28/10:00pm 12.6 7.9 10.8 89 0.9 WNW 26 33 14 18 1020.4 1020.4 0.0
28/09:30pm 12.6 8.0 11.0 90 0.8 NW 26 32 14 17 1020.3 1020.3 0.0
28/09:00pm 12.7 7.7 10.8 88 1.0 NW 28 33 15 18 1020.1 1020.1 0.0
28/08:30pm 12.7 7.7 10.9 89 0.9 NW 28 33 15 18 1020.0 1020.0 0.0
28/08:00pm 12.7 7.7 10.8 88 1.0 NW 28 37 15 20 1019.8 1019.8 0.0
28/07:30pm 12.7 8.4 10.8 88 1.0 WNW 24 30 13 16 1019.8 1019.8 0.0
28/07:00pm 12.7 8.4 10.8 88 1.0 NW 24 30 13 16 1019.4 1019.4 0.0
28/06:30pm 12.8 8.1 10.5 86 1.2 WNW 26 33 14 18 1019.3 1019.3 0.0
28/06:00pm 13.1 8.0 10.6 85 1.3 NW 28 35 15 19 1018.9 1018.9 0.0
28/05:30pm 13.2 8.9 10.6 84 1.4 WNW 24 30 13 16 1018.6 1018.6 0.0
28/05:00pm 12.8 9.1 9.4 80 1.7 WNW 19 24 10 13 1018.2 1018.2 0.0
28/04:30pm 13.6 8.7 10.0 79 1.9 WNW 26 32 14 17 1017.8 1017.9 0.0
28/04:00pm 14.0 9.0 11.0 82 1.6 NW 28 33 15 18 1017.5 1017.6 0.0
28/03:30pm 13.9 9.0 11.2 84 1.4 NW 28 35 15 19 1017.4 1017.5 0.0
28/03:00pm 14.9 10.9 10.5 75 2.3 WNW 22 28 12 15 1017.1 1017.2 0.0
28/02:30pm 14.8 10.1 10.6 76 2.2 WNW 26 32 14 17 1017.0 1017.1 0.0
28/02:00pm 14.6 9.7 11.4 81 1.7 WNW 28 33 15 18 1017.0 1017.1 0.0
28/01:30pm 14.5 9.3 11.7 83 1.5 NW 30 35 16 19 1017.0 1017.1 0.0
28/01:00pm 14.2 8.9 11.2 82 1.6 NW 30 39 16 21 1017.3 1017.4 0.0
28/12:30pm 14.5 9.7 11.5 82 1.6 NW 28 32 15 17 1017.3 1017.4 0.0
28/12:00pm 14.0 8.7 11.2 83 1.5 NW 30 37 16 20 1017.4 1017.5 0.0
28/11:30am 13.7 8.3 10.9 83 1.5 NW 30 39 16 21 1017.8 1017.9 0.0
28/11:00am 13.5 7.7 10.9 84 1.4 NW 32 39 17 21 1018.0 1018.0 0.0
28/10:30am 13.3 7.8 10.7 84 1.4 WNW 30 37 16 20 1018.0 1018.0 0.0
28/10:00am 13.1 8.8 10.6 85 1.3 WNW 24 30 13 16 1018.0 1018.0 0.0
28/09:30am 12.6 8.2 10.3 86 1.2 WNW 24 30 13 16 1017.6 1017.7 0.0
28/09:00am 12.1 7.3 10.2 88 1.0 WNW 26 35 14 19 1017.3 1017.4 0.0
28/08:30am 11.9 6.6 10.0 88 1.0 WNW 28 33 15 18 1017.1 1017.2 0.0
28/08:00am 11.4 6.0 9.5 88 1.0 WNW 28 33 15 18 1017.0 1017.1 0.0
28/07:30am 11.4 6.8 9.5 88 1.0 WNW 24 33 13 18 1016.7 1016.8 0.0
28/07:00am 10.9 6.6 9.3 90 0.8 WNW 22 28 12 15 1016.5 1016.6 0.0
28/06:30am 11.0 5.9 9.3 89 0.8 WNW 26 32 14 17 1016.1 1016.2 0.0
28/06:00am 11.1 6.0 9.2 88 0.9 WNW 26 33 14 18 1015.8 1015.9 0.0
28/05:30am 11.2 5.4 9.3 88 1.0 WNW 30 37 16 20 1015.5 1015.6 0.0
28/05:00am 11.0 5.1 8.9 87 1.0 WNW 30 35 16 19 1015.3 1015.4 0.0
28/04:30am 10.8 6.1 9.1 89 0.8 WNW 24 30 13 16 1015.4 1015.5 0.0
28/04:00am 10.3 6.2 8.6 89 0.8 WNW 20 26 11 14 1015.6 1015.7 0.0
28/03:30am 10.1 5.5 8.2 88 0.9 WNW 22 30 12 16 1015.6 1015.7 0.0
28/03:00am 10.2 5.6 8.3 88 0.9 WNW 22 28 12 15 1015.4 1015.5 0.0
28/02:30am 9.8 4.3 7.7 87 1.0 WNW 26 33 14 18 1015.4 1015.5 0.0
28/02:00am 10.1 4.3 7.9 86 1.1 WNW 28 35 15 19 1015.4 1015.5 0.0
28/01:30am 8.9 6.2 7.4 90 0.7 WSW 11 19 6 10 1015.5 1015.6 0.0
28/01:00am 8.1 6.1 6.2 88 0.9 W 6 9 3 5 1015.7 1015.8 0.0
28/12:30am 8.0 5.4 6.3 89 0.8 W 9 11 5 6 1015.7 1015.8 0.0
28/12:00am 8.5 5.2 6.5 87 0.9 WNW 13 17 7 9 1015.8 1015.9 0.0
 
Date/Time
EST
Temp
°C
App
Temp
°C
Dew
Point
°C
Rel
Hum
%
Delta-T
°C
Wind Press
QNH
hPa
Press
MSL
hPa
Rain since
9am
mm
Dir  Spd
km/h
Gust
km/h
Spd
kts
Gust
kts
27/11:30pm 9.3 4.3 6.6 83 1.3 WNW 22 26 12 14 1015.7 1015.8 0.0
27/11:00pm 9.2 4.6 6.5 83 1.2 WNW 20 30 11 16 1015.8 1015.9 0.0
27/10:30pm 8.6 4.2 6.7 88 0.9 W 19 26 10 14 1015.8 1015.9 0.0
27/10:00pm 7.0 4.5 4.5 84 1.1 W 7 9 4 5 1015.7 1015.8 0.0
27/09:30pm 7.1 4.2 4.6 84 1.1 W 9 11 5 6 1015.7 1015.8 0.0
27/09:00pm 6.0 1.8 3.7 85 1.0 W 15 17 8 9 1015.6 1015.7 0.0
27/08:30pm 5.9 0.9 3.6 85 1.0 W 19 20 10 11 1015.5 1015.6 0.0
27/08:00pm 6.5 2.0 4.2 85 1.0 W 17 19 9 10 1015.3 1015.4 0.0
27/07:30pm 6.8 4.4 4.3 84 1.1 WSW 6 11 3 6 1015.4 1015.5 0.0
27/07:00pm 7.5 5.2 4.6 82 1.3 SW 6 7 3 4 1015.2 1015.3 0.0
27/06:30pm 8.2 5.3 4.8 79 1.5 SW 9 13 5 7 1014.9 1015.0 0.0
27/06:00pm 8.5 5.2 4.7 77 1.7 WSW 11 15 6 8 1014.4 1014.5 0.0
27/05:30pm 8.8 4.8 4.8 76 1.8 W 15 17 8 9 1014.1 1014.2 0.0
27/05:00pm 9.4 5.4 5.0 74 2.0 W 15 17 8 9 1013.7 1013.8 0.0
27/04:30pm 10.9 6.2 5.0 67 2.7 W 19 24 10 13 1013.4 1013.5 0.0
27/04:00pm 12.0 6.5 5.9 66 2.9 W 24 28 13 15 1013.2 1013.3 0.0
27/03:30pm 12.4 6.7 6.5 67 2.8 WNW 26 32 14 17 1013.0 1013.1 0.0
27/03:00pm 13.1 8.3 5.8 61 3.4 W 20 28 11 15 1013.0 1013.1 0.0

Other Formats:

Comma delimited format used in spreadsheet applications
http://www.bom.gov.au/fwo/IDT60801/IDT60801.95960.axf

JavaScript Object Notation format (JSON) in row-major order
http://www.bom.gov.au/fwo/IDT60801/IDT60801.95960.json